sensor_id;sensor_type;location;lat;lon;timestamp;pressure;altitude;pressure_sealevel;temperature;humidity
50550;BME280;36505;52.512;13.460;2022-08-03T00:01:00;101151.63;;;21.02;48.71
50550;BME280;36505;52.512;13.460;2022-08-03T00:03:25;101150.81;;;21.01;49.02
50550;BME280;36505;52.512;13.460;2022-08-03T00:05:50;101144.44;;;21.01;48.71
50550;BME280;36505;52.512;13.460;2022-08-03T00:08:16;101148.84;;;21.02;48.36
50550;BME280;36505;52.512;13.460;2022-08-03T00:10:41;101144.09;;;21.02;48.54
50550;BME280;36505;52.512;13.460;2022-08-03T00:13:07;101146.88;;;21.02;48.77
50550;BME280;36505;52.512;13.460;2022-08-03T00:15:32;101146.59;;;21.04;48.67
50550;BME280;36505;52.512;13.460;2022-08-03T00:17:57;101140.50;;;21.02;48.73
50550;BME280;36505;52.512;13.460;2022-08-03T00:20:23;101137.22;;;21.00;48.85
50550;BME280;36505;52.512;13.460;2022-08-03T00:22:50;101141.94;;;20.99;48.79
50550;BME280;36505;52.512;13.460;2022-08-03T00:25:16;101143.66;;;20.95;48.91
50550;BME280;36505;52.512;13.460;2022-08-03T00:27:41;101131.78;;;20.89;49.17
50550;BME280;36505;52.512;13.460;2022-08-03T00:30:07;101141.72;;;20.96;49.30
50550;BME280;36505;52.512;13.460;2022-08-03T00:32:32;101138.44;;;20.94;49.35
50550;BME280;36505;52.512;13.460;2022-08-03T00:34:58;101135.09;;;20.92;49.46
50550;BME280;36505;52.512;13.460;2022-08-03T00:37:23;101132.63;;;20.90;49.74
50550;BME280;36505;52.512;13.460;2022-08-03T00:39:48;101127.69;;;20.87;50.04
50550;BME280;36505;52.512;13.460;2022-08-03T00:42:14;101122.41;;;20.85;50.07
50550;BME280;36505;52.512;13.460;2022-08-03T00:44:43;101113.63;;;20.78;50.47
50550;BME280;36505;52.512;13.460;2022-08-03T00:47:09;101121.69;;;20.80;50.50
50550;BME280;36505;52.512;13.460;2022-08-03T00:49:36;101128.47;;;20.74;50.66
50550;BME280;36505;52.512;13.460;2022-08-03T00:52:01;101122.66;;;20.70;51.01
50550;BME280;36505;52.512;13.460;2022-08-03T00:54:28;101118.75;;;20.71;50.84
50550;BME280;36505;52.512;13.460;2022-08-03T00:56:53;101120.41;;;20.72;50.83
50550;BME280;36505;52.512;13.460;2022-08-03T00:59:20;101111.81;;;20.69;51.02
50550;BME280;36505;52.512;13.460;2022-08-03T01:01:45;101115.88;;;20.76;50.81
50550;BME280;36505;52.512;13.460;2022-08-03T01:04:10;101117.53;;;20.77;51.09
50550;BME280;36505;52.512;13.460;2022-08-03T01:06:47;101113.81;;;20.82;51.16
50550;BME280;36505;52.512;13.460;2022-08-03T01:09:36;101120.22;;;20.82;50.67
50550;BME280;36505;52.512;13.460;2022-08-03T01:17:48;101110.09;;;20.73;51.36
50550;BME280;36505;52.512;13.460;2022-08-03T01:20:16;101116.50;;;20.73;51.59
50550;BME280;36505;52.512;13.460;2022-08-03T01:28:37;101103.81;;;20.67;51.96
50550;BME280;36505;52.512;13.460;2022-08-03T01:31:06;101097.06;;;20.68;52.40
50550;BME280;36505;52.512;13.460;2022-08-03T01:33:44;101099.56;;;20.70;51.83
50550;BME280;36505;52.512;13.460;2022-08-03T01:36:13;101097.06;;;20.68;52.11
50550;BME280;36505;52.512;13.460;2022-08-03T01:38:53;101094.63;;;20.67;52.11
50550;BME280;36505;52.512;13.460;2022-08-03T01:41:21;101099.66;;;20.65;52.21
50550;BME280;36505;52.512;13.460;2022-08-03T01:43:50;101094.09;;;20.65;52.07
50550;BME280;36505;52.512;13.460;2022-08-03T01:46:18;101099.34;;;20.66;52.13
50550;BME280;36505;52.512;13.460;2022-08-03T01:48:47;101095.44;;;20.67;52.12
50550;BME280;36505;52.512;13.460;2022-08-03T01:51:14;101100.41;;;20.70;51.64
50550;BME280;36505;52.512;13.460;2022-08-03T01:53:41;101089.88;;;20.67;51.87
50550;BME280;36505;52.512;13.460;2022-08-03T01:56:07;101100.41;;;20.70;51.76
50550;BME280;36505;52.512;13.460;2022-08-03T01:58:34;101091.22;;;20.70;51.80
50550;BME280;36505;52.512;13.460;2022-08-03T02:01:02;101090.09;;;20.71;51.59
50550;BME280;36505;52.512;13.460;2022-08-03T02:03:28;101096.69;;;20.75;51.62
50550;BME280;36505;52.512;13.460;2022-08-03T02:05:56;101083.94;;;20.74;51.33
50550;BME280;36505;52.512;13.460;2022-08-03T02:08:24;101085.88;;;20.73;50.89
50550;BME280;36505;52.512;13.460;2022-08-03T02:10:51;101088.66;;;20.73;51.11
50550;BME280;36505;52.512;13.460;2022-08-03T02:13:19;101090.81;;;20.76;51.40
50550;BME280;36505;52.512;13.460;2022-08-03T02:15:45;101089.41;;;20.79;50.77
50550;BME280;36505;52.512;13.460;2022-08-03T02:18:12;101090.22;;;20.79;50.69
50550;BME280;36505;52.512;13.460;2022-08-03T02:20:40;101089.69;;;20.77;50.54
50550;BME280;36505;52.512;13.460;2022-08-03T02:23:05;101081.34;;;20.77;50.59
50550;BME280;36505;52.512;13.460;2022-08-03T02:25:34;101084.44;;;20.76;50.83
50550;BME280;36505;52.512;13.460;2022-08-03T02:28:11;101095.56;;;20.76;50.45
50550;BME280;36505;52.512;13.460;2022-08-03T02:30:42;101091.94;;;20.75;50.35
50550;BME280;36505;52.512;13.460;2022-08-03T02:33:22;101089.16;;;20.75;50.80
50550;BME280;36505;52.512;13.460;2022-08-03T02:35:50;101085.78;;;20.78;50.83
50550;BME280;36505;52.512;13.460;2022-08-03T02:38:20;101094.69;;;20.80;50.65
50550;BME280;36505;52.512;13.460;2022-08-03T02:40:49;101088.78;;;20.82;50.91
50550;BME280;36505;52.512;13.460;2022-08-03T02:43:17;101089.09;;;20.80;50.72
50550;BME280;36505;52.512;13.460;2022-08-03T02:45:48;101084.38;;;20.81;50.88
50550;BME280;36505;52.512;13.460;2022-08-03T02:48:22;101083.22;;;20.82;51.07
50550;BME280;36505;52.512;13.460;2022-08-03T02:50:50;101091.25;;;20.83;51.05
50550;BME280;36505;52.512;13.460;2022-08-03T02:53:18;101089.94;;;20.81;51.07
50550;BME280;36505;52.512;13.460;2022-08-03T02:55:45;101089.84;;;20.86;51.42
50550;BME280;36505;52.512;13.460;2022-08-03T02:58:12;101099.31;;;20.85;50.08
50550;BME280;36505;52.512;13.460;2022-08-03T03:00:38;101082.47;;;20.76;50.21
50550;BME280;36505;52.512;13.460;2022-08-03T03:03:04;101095.25;;;20.77;49.84
50550;BME280;36505;52.512;13.460;2022-08-03T03:05:31;101091.94;;;20.75;50.24
50550;BME280;36505;52.512;13.460;2022-08-03T03:07:57;101098.16;;;20.72;50.37
50550;BME280;36505;52.512;13.460;2022-08-03T03:10:23;101100.63;;;20.74;50.12
50550;BME280;36505;52.512;13.460;2022-08-03T03:12:52;101095.88;;;20.74;50.27
50550;BME280;36505;52.512;13.460;2022-08-03T03:15:19;101089.06;;;20.67;50.13
50550;BME280;36505;52.512;13.460;2022-08-03T03:17:46;101100.09;;;20.72;50.47
50550;BME280;36505;52.512;13.460;2022-08-03T03:20:13;101095.94;;;20.69;50.55
50550;BME280;36505;52.512;13.460;2022-08-03T03:22:40;101101.03;;;20.67;50.52
50550;BME280;36505;52.512;13.460;2022-08-03T03:25:06;101094.63;;;20.67;50.79
50550;BME280;36505;52.512;13.460;2022-08-03T03:27:32;101096.25;;;20.68;50.87
50550;BME280;36505;52.512;13.460;2022-08-03T03:29:58;101096.03;;;20.64;51.01
50550;BME280;36505;52.512;13.460;2022-08-03T03:32:26;101090.47;;;20.64;50.80
50550;BME280;36505;52.512;13.460;2022-08-03T03:34:53;101092.97;;;20.66;51.11
50550;BME280;36505;52.512;13.460;2022-08-03T03:37:20;101096.03;;;20.64;50.85
50550;BME280;36505;52.512;13.460;2022-08-03T03:39:45;101094.69;;;20.62;51.50
50550;BME280;36505;52.512;13.460;2022-08-03T03:42:11;101092.44;;;20.64;51.39
50550;BME280;36505;52.512;13.460;2022-08-03T03:44:36;101096.88;;;20.65;51.15
50550;BME280;36505;52.512;13.460;2022-08-03T03:47:02;101097.69;;;20.65;50.80
50550;BME280;36505;52.512;13.460;2022-08-03T03:49:27;101094.38;;;20.63;51.13
50550;BME280;36505;52.512;13.460;2022-08-03T03:51:54;101092.97;;;20.66;51.41
50550;BME280;36505;52.512;13.460;2022-08-03T03:54:19;101091.50;;;20.68;50.78
50550;BME280;36505;52.512;13.460;2022-08-03T03:56:45;101096.25;;;20.68;50.60
50550;BME280;36505;52.512;13.460;2022-08-03T03:59:11;101087.91;;;20.68;50.68
50550;BME280;36505;52.512;13.460;2022-08-03T04:01:37;101091.84;;;20.67;50.72
50550;BME280;36505;52.512;13.460;2022-08-03T04:04:03;101086.56;;;20.65;50.88
50550;BME280;36505;52.512;13.460;2022-08-03T04:06:49;101084.72;;;20.61;50.90
50550;BME280;36505;52.512;13.460;2022-08-03T04:09:35;101091.91;;;20.62;50.93
50550;BME280;36505;52.512;13.460;2022-08-03T04:12:22;101086.34;;;20.62;51.24
50550;BME280;36505;52.512;13.460;2022-08-03T04:14:53;101090.09;;;20.71;50.47
50550;BME280;36505;52.512;13.460;2022-08-03T04:17:22;101092.66;;;20.67;50.71
50550;BME280;36505;52.512;13.460;2022-08-03T04:19:52;101089.34;;;20.65;50.63
50550;BME280;36505;52.512;13.460;2022-08-03T04:22:22;101100.00;;;20.77;50.73
50550;BME280;36505;52.512;13.460;2022-08-03T04:24:55;101098.16;;;20.72;50.57
50550;BME280;36505;52.512;13.460;2022-08-03T04:27:27;101097.06;;;20.68;51.07
50550;BME280;36505;52.512;13.460;2022-08-03T04:29:56;101091.06;;;20.61;51.20
50550;BME280;36505;52.512;13.460;2022-08-03T04:32:22;101099.41;;;20.61;51.01
50550;BME280;36505;52.512;13.460;2022-08-03T04:34:49;101092.81;;;20.57;51.03
50550;BME280;36505;52.512;13.460;2022-08-03T04:37:40;101109.38;;;20.67;50.90
50550;BME280;36505;52.512;13.460;2022-08-03T04:40:17;101116.78;;;20.72;50.70
50550;BME280;36505;52.512;13.460;2022-08-03T04:42:44;101106.69;;;20.76;50.85
50550;BME280;36505;52.512;13.460;2022-08-03T04:45:12;101110.84;;;20.78;50.89
50550;BME280;36505;52.512;13.460;2022-08-03T04:47:39;101100.94;;;20.72;50.76
50550;BME280;36505;52.512;13.460;2022-08-03T04:50:05;101114.16;;;20.80;50.85
50550;BME280;36505;52.512;13.460;2022-08-03T04:52:33;101112.19;;;20.81;50.81
50550;BME280;36505;52.512;13.460;2022-08-03T04:54:58;101110.75;;;20.83;50.93
50550;BME280;36505;52.512;13.460;2022-08-03T04:57:24;101114.06;;;20.85;50.99
50550;BME280;36505;52.512;13.460;2022-08-03T04:59:53;101112.59;;;20.88;50.61
50550;BME280;36505;52.512;13.460;2022-08-03T05:02:22;101112.25;;;20.95;50.39
50550;BME280;36505;52.512;13.460;2022-08-03T05:04:48;101108.88;;;21.11;50.39
50550;BME280;36505;52.512;13.460;2022-08-03T05:07:15;101107.69;;;21.17;49.81
50550;BME280;36505;52.512;13.460;2022-08-03T05:09:42;101117.69;;;21.18;50.18
50550;BME280;36505;52.512;13.460;2022-08-03T05:12:07;101118.88;;;21.12;50.13
50550;BME280;36505;52.512;13.460;2022-08-03T05:14:33;101112.47;;;21.12;50.32
50550;BME280;36505;52.512;13.460;2022-08-03T05:17:02;101121.91;;;21.16;50.69
50550;BME280;36505;52.512;13.460;2022-08-03T05:19:27;101119.94;;;21.16;50.74
50550;BME280;36505;52.512;13.460;2022-08-03T05:21:52;101116.84;;;21.18;50.26
50550;BME280;36505;52.512;13.460;2022-08-03T05:24:18;101118.41;;;21.24;50.57
50550;BME280;36505;52.512;13.460;2022-08-03T05:26:43;101108.31;;;21.28;50.86
50550;BME280;36505;52.512;13.460;2022-08-03T05:29:09;101114.09;;;21.32;50.18
50550;BME280;36505;52.512;13.460;2022-08-03T05:31:34;101113.28;;;21.31;49.98
50550;BME280;36505;52.512;13.460;2022-08-03T05:34:00;101116.47;;;21.38;49.92
50550;BME280;36505;52.512;13.460;2022-08-03T05:36:25;101123.09;;;21.42;49.94
50550;BME280;36505;52.512;13.460;2022-08-03T05:38:50;101121.88;;;21.48;49.38
50550;BME280;36505;52.512;13.460;2022-08-03T05:41:16;101120.75;;;21.49;49.07
50550;BME280;36505;52.512;13.460;2022-08-03T05:43:41;101124.97;;;21.60;49.15
50550;BME280;36505;52.512;13.460;2022-08-03T05:46:07;101122.91;;;21.66;49.13
50550;BME280;36505;52.512;13.460;2022-08-03T05:48:32;101124.75;;;21.71;48.81
50550;BME280;36505;52.512;13.460;2022-08-03T05:50:57;101135.47;;;21.77;48.65
50550;BME280;36505;52.512;13.460;2022-08-03T05:53:23;101122.91;;;21.80;48.80
50550;BME280;36505;52.512;13.460;2022-08-03T05:55:48;101129.72;;;21.87;48.68
50550;BME280;36505;52.512;13.460;2022-08-03T05:58:13;101128.16;;;21.95;47.55
50550;BME280;36505;52.512;13.460;2022-08-03T06:00:39;101127.13;;;22.04;47.95
50550;BME280;36505;52.512;13.460;2022-08-03T06:03:04;101124.84;;;22.20;47.56
50550;BME280;36505;52.512;13.460;2022-08-03T06:05:30;101123.72;;;22.21;48.11
50550;BME280;36505;52.512;13.460;2022-08-03T06:07:55;101133.00;;;22.30;47.32
50550;BME280;36505;52.512;13.460;2022-08-03T06:10:21;101131.44;;;22.38;47.38
50550;BME280;36505;52.512;13.460;2022-08-03T06:12:46;101132.63;;;22.45;47.40
50550;BME280;36505;52.512;13.460;2022-08-03T06:15:14;101134.19;;;22.52;47.83
50550;BME280;36505;52.512;13.460;2022-08-03T06:17:49;101125.69;;;22.57;47.15
50550;BME280;36505;52.512;13.460;2022-08-03T06:20:17;101129.88;;;22.68;46.84
50550;BME280;36505;52.512;13.460;2022-08-03T06:22:42;101130.66;;;22.82;46.69
50550;BME280;36505;52.512;13.460;2022-08-03T06:25:08;101129.91;;;22.90;46.35
50550;BME280;36505;52.512;13.460;2022-08-03T06:27:33;101127.69;;;23.01;46.42
50550;BME280;36505;52.512;13.460;2022-08-03T06:29:59;101133.31;;;23.09;45.42
50550;BME280;36505;52.512;13.460;2022-08-03T06:32:24;101128.13;;;23.16;45.33
50550;BME280;36505;52.512;13.460;2022-08-03T06:34:49;101124.25;;;23.26;44.80
50550;BME280;36505;52.512;13.460;2022-08-03T06:37:15;101123.94;;;23.36;44.02
50550;BME280;36505;52.512;13.460;2022-08-03T06:39:40;101127.31;;;23.47;42.93
50550;BME280;36505;52.512;13.460;2022-08-03T06:42:06;101132.31;;;23.58;43.25
50550;BME280;36505;52.512;13.460;2022-08-03T06:44:31;101133.34;;;23.71;43.01
50550;BME280;36505;52.512;13.460;2022-08-03T06:46:57;101134.22;;;23.89;42.49
50550;BME280;36505;52.512;13.460;2022-08-03T06:49:22;101132.97;;;24.12;42.95
50550;BME280;36505;52.512;13.460;2022-08-03T06:51:48;101117.75;;;24.53;40.85
50550;BME280;36505;52.512;13.460;2022-08-03T06:54:15;101118.97;;;25.33;38.43
50550;BME280;36505;52.512;13.460;2022-08-03T06:56:41;101117.09;;;26.84;35.21
50550;BME280;36505;52.512;13.460;2022-08-03T06:59:07;101125.19;;;28.12;32.82
50550;BME280;36505;52.512;13.460;2022-08-03T07:01:32;101120.31;;;30.07;30.34
50550;BME280;36505;52.512;13.460;2022-08-03T07:04:00;101114.66;;;31.84;28.10
50550;BME280;36505;52.512;13.460;2022-08-03T07:06:26;101117.97;;;33.39;25.30
50550;BME280;36505;52.512;13.460;2022-08-03T07:08:51;101108.72;;;34.55;23.78
50550;BME280;36505;52.512;13.460;2022-08-03T07:11:16;101111.47;;;35.49;22.67
50550;BME280;36505;52.512;13.460;2022-08-03T07:13:42;101122.47;;;36.32;21.99
50550;BME280;36505;52.512;13.460;2022-08-03T07:16:07;101118.97;;;37.01;20.28
50550;BME280;36505;52.512;13.460;2022-08-03T07:18:37;101111.38;;;37.46;20.30
50550;BME280;36505;52.512;13.460;2022-08-03T07:21:02;101113.78;;;37.99;19.25
50550;BME280;36505;52.512;13.460;2022-08-03T07:23:28;101116.38;;;37.86;19.23
50550;BME280;36505;52.512;13.460;2022-08-03T07:25:53;101117.22;;;38.28;19.09
50550;BME280;36505;52.512;13.460;2022-08-03T07:28:19;101122.72;;;38.80;18.93
50550;BME280;36505;52.512;13.460;2022-08-03T07:30:44;101117.81;;;39.41;17.74
50550;BME280;36505;52.512;13.460;2022-08-03T07:33:10;101112.50;;;39.39;17.67
50550;BME280;36505;52.512;13.460;2022-08-03T07:35:35;101122.06;;;39.79;17.48
50550;BME280;36505;52.512;13.460;2022-08-03T07:38:01;101108.75;;;39.69;17.03
50550;BME280;36505;52.512;13.460;2022-08-03T07:40:26;101109.69;;;39.36;17.52
50550;BME280;36505;52.512;13.460;2022-08-03T07:42:51;101107.13;;;39.68;17.85
50550;BME280;36505;52.512;13.460;2022-08-03T07:45:17;101115.69;;;40.18;17.02
50550;BME280;36505;52.512;13.460;2022-08-03T07:47:42;101116.63;;;40.12;17.14
50550;BME280;36505;52.512;13.460;2022-08-03T07:50:08;101111.44;;;40.03;16.79
50550;BME280;36505;52.512;13.460;2022-08-03T07:52:33;101114.75;;;40.25;16.83
50550;BME280;36505;52.512;13.460;2022-08-03T07:55:22;101117.41;;;40.55;16.59
50550;BME280;36505;52.512;13.460;2022-08-03T07:58:07;101112.47;;;41.15;15.99
50550;BME280;36505;52.512;13.460;2022-08-03T08:00:43;101117.69;;;41.20;15.84
50550;BME280;36505;52.512;13.460;2022-08-03T08:03:11;101114.81;;;41.36;15.80
50550;BME280;36505;52.512;13.460;2022-08-03T08:05:37;101116.13;;;41.68;15.78
50550;BME280;36505;52.512;13.460;2022-08-03T08:08:03;101113.06;;;42.07;15.26
50550;BME280;36505;52.512;13.460;2022-08-03T08:10:29;101111.03;;;42.37;15.49
50550;BME280;36505;52.512;13.460;2022-08-03T08:12:55;101119.06;;;42.58;15.08
50550;BME280;36505;52.512;13.460;2022-08-03T08:15:21;101116.63;;;42.85;14.43
50550;BME280;36505;52.512;13.460;2022-08-03T08:17:49;101111.44;;;42.93;14.63
50550;BME280;36505;52.512;13.460;2022-08-03T08:20:19;101111.50;;;43.31;14.18
50550;BME280;36505;52.512;13.460;2022-08-03T08:22:45;101108.25;;;43.29;13.86
50550;BME280;36505;52.512;13.460;2022-08-03T08:25:10;101110.00;;;43.52;13.97
50550;BME280;36505;52.512;13.460;2022-08-03T08:27:43;101116.72;;;44.08;13.54
50550;BME280;36505;52.512;13.460;2022-08-03T08:30:10;101111.97;;;44.15;13.67
50550;BME280;36505;52.512;13.460;2022-08-03T08:32:36;101111.16;;;44.48;13.29
50550;BME280;36505;52.512;13.460;2022-08-03T08:35:05;101112.00;;;44.58;13.31
50550;BME280;36505;52.512;13.460;2022-08-03T08:37:31;101115.72;;;44.24;13.47
50550;BME280;36505;52.512;13.460;2022-08-03T08:39:57;101115.19;;;44.17;13.14
50550;BME280;36505;52.512;13.460;2022-08-03T08:42:23;101108.56;;;44.51;12.88
50550;BME280;36505;52.512;13.460;2022-08-03T08:44:48;101107.75;;;44.28;12.70
50550;BME280;36505;52.512;13.460;2022-08-03T08:47:14;101111.72;;;44.22;12.86
50550;BME280;36505;52.512;13.460;2022-08-03T08:49:40;101110.66;;;44.28;13.22
50550;BME280;36505;52.512;13.460;2022-08-03T08:52:07;101111.06;;;44.61;12.73
50550;BME280;36505;52.512;13.460;2022-08-03T08:54:35;101113.69;;;44.68;12.69
50550;BME280;36505;52.512;13.460;2022-08-03T08:57:02;101100.78;;;44.60;13.03
50550;BME280;36505;52.512;13.460;2022-08-03T08:59:31;101104.38;;;44.42;12.67
50550;BME280;36505;52.512;13.460;2022-08-03T09:01:57;101111.53;;;44.03;12.93
50550;BME280;36505;52.512;13.460;2022-08-03T09:04:23;101104.66;;;43.76;13.00
50550;BME280;36505;52.512;13.460;2022-08-03T09:06:49;101112.19;;;43.60;13.36
50550;BME280;36505;52.512;13.460;2022-08-03T09:09:16;101103.53;;;43.22;13.24
50550;BME280;36505;52.512;13.460;2022-08-03T09:11:41;101100.59;;;42.84;13.54
50550;BME280;36505;52.512;13.460;2022-08-03T09:14:08;101111.00;;;42.66;14.23
50550;BME280;36505;52.512;13.460;2022-08-03T09:16:33;101107.19;;;42.56;14.29
50550;BME280;36505;52.512;13.460;2022-08-03T09:19:11;101107.41;;;41.88;14.17
50550;BME280;36505;52.512;13.460;2022-08-03T09:21:40;101102.13;;;41.54;14.66
50550;BME280;36505;52.512;13.460;2022-08-03T09:24:05;101099.06;;;41.09;15.10
50550;BME280;36505;52.512;13.460;2022-08-03T09:26:33;101099.63;;;40.84;14.59
50550;BME280;36505;52.512;13.460;2022-08-03T09:29:01;101087.03;;;39.95;15.57
50550;BME280;36505;52.512;13.460;2022-08-03T09:31:37;101086.63;;;38.89;16.71
50550;BME280;36505;52.512;13.460;2022-08-03T09:34:06;101087.63;;;38.76;16.82
50550;BME280;36505;52.512;13.460;2022-08-03T09:36:40;101083.47;;;38.80;17.45
50550;BME280;36505;52.512;13.460;2022-08-03T09:39:08;101079.31;;;38.54;17.17
50550;BME280;36505;52.512;13.460;2022-08-03T09:41:36;101088.63;;;38.62;17.34
50550;BME280;36505;52.512;13.460;2022-08-03T09:44:02;101085.50;;;38.49;17.42
50550;BME280;36505;52.512;13.460;2022-08-03T09:46:27;101094.09;;;38.46;17.52
50550;BME280;36505;52.512;13.460;2022-08-03T09:49:08;101080.38;;;38.33;17.85
50550;BME280;36505;52.512;13.460;2022-08-03T09:51:34;101090.53;;;37.97;17.76
50550;BME280;36505;52.512;13.460;2022-08-03T09:54:00;101086.63;;;37.77;18.36
50550;BME280;36505;52.512;13.460;2022-08-03T09:56:45;101087.22;;;37.54;17.92
50550;BME280;36505;52.512;13.460;2022-08-03T09:59:12;101094.13;;;36.94;18.48
50550;BME280;36505;52.512;13.460;2022-08-03T10:01:38;101083.75;;;36.41;19.25
50550;BME280;36505;52.512;13.460;2022-08-03T10:04:11;101084.53;;;36.46;19.66
50550;BME280;36505;52.512;13.460;2022-08-03T10:06:38;101077.28;;;36.16;19.41
50550;BME280;36505;52.512;13.460;2022-08-03T10:09:08;101082.59;;;36.03;19.69
50550;BME280;36505;52.512;13.460;2022-08-03T10:11:34;101075.25;;;36.20;19.04
50550;BME280;36505;52.512;13.460;2022-08-03T10:14:04;101072.38;;;36.27;19.83
50550;BME280;36505;52.512;13.460;2022-08-03T10:16:35;101072.78;;;36.26;19.43
50550;BME280;36505;52.512;13.460;2022-08-03T10:19:05;101067.09;;;36.19;19.36
50550;BME280;36505;52.512;13.460;2022-08-03T10:21:33;101066.72;;;35.92;19.59
50550;BME280;36505;52.512;13.460;2022-08-03T10:24:02;101065.91;;;35.91;20.59
50550;BME280;36505;52.512;13.460;2022-08-03T10:26:30;101059.81;;;35.86;20.34
50550;BME280;36505;52.512;13.460;2022-08-03T10:29:02;101056.97;;;35.86;19.42
50550;BME280;36505;52.512;13.460;2022-08-03T10:31:34;101058.22;;;35.71;20.15
50550;BME280;36505;52.512;13.460;2022-08-03T10:34:03;101059.41;;;35.62;20.23
50550;BME280;36505;52.512;13.460;2022-08-03T10:36:31;101056.56;;;35.52;20.65
50550;BME280;36505;52.512;13.460;2022-08-03T10:38:58;101050.06;;;35.58;20.85
50550;BME280;36505;52.512;13.460;2022-08-03T10:41:31;101049.25;;;35.51;20.92
50550;BME280;36505;52.512;13.460;2022-08-03T10:44:06;101046.41;;;35.58;20.52
50550;BME280;36505;52.512;13.460;2022-08-03T10:46:33;101045.97;;;35.42;20.22
50550;BME280;36505;52.512;13.460;2022-08-03T10:49:00;101049.66;;;35.21;20.97
50550;BME280;36505;52.512;13.460;2022-08-03T10:51:27;101036.56;;;34.99;21.12
50550;BME280;36505;52.512;13.460;2022-08-03T10:53:57;101044.28;;;34.91;21.22
50550;BME280;36505;52.512;13.460;2022-08-03T10:56:37;101040.19;;;34.88;21.09
50550;BME280;36505;52.512;13.460;2022-08-03T11:02:09;101034.50;;;34.81;21.52
50550;BME280;36505;52.512;13.460;2022-08-03T11:04:35;101041.31;;;34.59;20.73
50550;BME280;36505;52.512;13.460;2022-08-03T11:07:33;101037.91;;;34.22;21.38
50550;BME280;36505;52.512;13.460;2022-08-03T11:09:58;101038.19;;;34.02;21.62
50550;BME280;36505;52.512;13.460;2022-08-03T11:12:31;101024.03;;;33.55;21.51
50550;BME280;36505;52.512;13.460;2022-08-03T11:14:59;101027.25;;;33.50;22.56
50550;BME280;36505;52.512;13.460;2022-08-03T11:17:25;101027.94;;;33.36;22.15
50550;BME280;36505;52.512;13.460;2022-08-03T11:19:52;101018.94;;;33.30;23.07
50550;BME280;36505;52.512;13.460;2022-08-03T11:22:18;101020.19;;;33.29;22.82
50550;BME280;36505;52.512;13.460;2022-08-03T11:27:23;101019.81;;;33.38;23.74
50550;BME280;36505;52.512;13.460;2022-08-03T11:37:34;101014.03;;;33.24;22.57
50550;BME280;36505;52.512;13.460;2022-08-03T11:40:00;101010.56;;;33.04;23.08
50550;BME280;36505;52.512;13.460;2022-08-03T11:44:57;101013.34;;;32.97;23.25
50550;BME280;36505;52.512;13.460;2022-08-03T11:47:25;101018.88;;;32.83;23.44
50550;BME280;36505;52.512;13.460;2022-08-03T11:49:55;101014.19;;;32.64;23.75
50550;BME280;36505;52.512;13.460;2022-08-03T11:52:23;101010.13;;;32.62;24.12
50550;BME280;36505;52.512;13.460;2022-08-03T11:54:53;101018.94;;;32.56;24.32
50550;BME280;36505;52.512;13.460;2022-08-03T11:57:33;101003.06;;;32.48;23.67
50550;BME280;36505;52.512;13.460;2022-08-03T11:59:58;101006.63;;;32.42;24.04
50550;BME280;36505;52.512;13.460;2022-08-03T12:02:24;101014.09;;;32.24;24.38
50550;BME280;36505;52.512;13.460;2022-08-03T12:04:57;101014.16;;;32.01;24.02
50550;BME280;36505;52.512;13.460;2022-08-03T12:07:25;101006.59;;;31.82;24.28
50550;BME280;36505;52.512;13.460;2022-08-03T12:10:09;101010.41;;;31.67;25.20
50550;BME280;36505;52.512;13.460;2022-08-03T12:12:35;101008.34;;;31.64;25.89
50550;BME280;36505;52.512;13.460;2022-08-03T12:15:02;101007.97;;;31.65;25.28
50550;BME280;36505;52.512;13.460;2022-08-03T12:17:36;101012.41;;;31.66;26.06
50550;BME280;36505;52.512;13.460;2022-08-03T12:20:03;101004.72;;;31.63;25.04
50550;BME280;36505;52.512;13.460;2022-08-03T12:22:33;101004.63;;;31.60;25.40
50550;BME280;36505;52.512;13.460;2022-08-03T12:24:58;101002.09;;;31.55;25.43
50550;BME280;36505;52.512;13.460;2022-08-03T12:27:25;100997.63;;;31.54;26.00
50550;BME280;36505;52.512;13.460;2022-08-03T12:29:53;100989.94;;;31.51;26.13
50550;BME280;36505;52.512;13.460;2022-08-03T12:32:18;100996.34;;;31.48;25.35
50550;BME280;36505;52.512;13.460;2022-08-03T12:34:47;100995.34;;;31.36;25.99
50550;BME280;36505;52.512;13.460;2022-08-03T12:37:13;100987.56;;;31.30;25.54
50550;BME280;36505;52.512;13.460;2022-08-03T12:39:39;100975.25;;;31.19;25.78
50550;BME280;36505;52.512;13.460;2022-08-03T12:42:04;100978.97;;;31.23;26.55
50550;BME280;36505;52.512;13.460;2022-08-03T12:44:32;100981.78;;;31.23;26.00
50550;BME280;36505;52.512;13.460;2022-08-03T12:46:58;100980.16;;;31.22;26.78
50550;BME280;36505;52.512;13.460;2022-08-03T12:49:24;100978.53;;;31.21;26.57
50550;BME280;36505;52.512;13.460;2022-08-03T12:54:19;100968.84;;;31.22;26.22
50550;BME280;36505;52.512;13.460;2022-08-03T12:57:05;100968.41;;;31.20;27.00
50550;BME280;36505;52.512;13.460;2022-08-03T12:59:35;100970.03;;;31.21;26.39
50550;BME280;36505;52.512;13.460;2022-08-03T13:02:04;100966.00;;;31.22;27.14
50550;BME280;36505;52.512;13.460;2022-08-03T13:04:34;100961.09;;;31.19;25.99
50550;BME280;36505;52.512;13.460;2022-08-03T13:07:02;100970.81;;;31.18;26.55
50550;BME280;36505;52.512;13.460;2022-08-03T13:09:29;100967.53;;;31.16;26.76
50550;BME280;36505;52.512;13.460;2022-08-03T13:12:06;100970.34;;;31.16;26.65
50550;BME280;36505;52.512;13.460;2022-08-03T13:14:32;100961.88;;;31.16;27.12